createdAt,value
2017-08-03T00:00:49.855Z,98925.30
2017-08-03T00:03:23.795Z,98936.95
2017-08-03T00:05:56.776Z,98934.28
2017-08-03T00:08:31.319Z,98931.87
2017-08-03T00:11:04.626Z,98922.45
2017-08-03T00:13:40.274Z,98908.28
2017-08-03T00:16:20.738Z,98919.06
2017-08-03T00:18:53.934Z,98909.09
2017-08-03T00:21:26.599Z,98890.62
2017-08-03T00:24:02.440Z,98901.31
2017-08-03T00:26:35.748Z,98884.00
2017-08-03T00:29:09.244Z,98896.05
2017-08-03T00:31:44.812Z,98891.90
2017-08-03T00:34:18.322Z,98887.56
2017-08-03T00:36:55.769Z,98884.28
2017-08-03T00:39:33.363Z,98884.91
2017-08-03T00:42:05.537Z,98893.70
2017-08-03T00:44:40.010Z,98883.11
2017-08-03T00:47:12.677Z,98840.84
2017-08-03T00:49:46.985Z,98887.86
2017-08-03T00:52:19.442Z,98884.45
2017-08-03T00:54:51.394Z,98884.78
2017-08-03T00:57:23.614Z,98879.30
2017-08-03T00:59:56.500Z,98869.84
2017-08-03T01:02:29.265Z,98869.66
2017-08-03T01:05:01.799Z,98864.76
2017-08-03T01:07:33.745Z,98853.86
2017-08-03T01:10:05.614Z,98854.55
2017-08-03T01:12:38.744Z,98857.08
2017-08-03T01:15:11.043Z,98859.61
2017-08-03T01:17:45.546Z,98853.44
2017-08-03T01:20:18.208Z,98856.03
2017-08-03T01:22:50.510Z,98838.77
2017-08-03T01:25:24.007Z,98847.11
2017-08-03T01:27:56.525Z,98848.69
2017-08-03T01:30:30.292Z,98819.42
2017-08-03T01:33:03.480Z,98857.41
2017-08-03T01:35:36.058Z,98862.36
2017-08-03T01:38:08.952Z,98843.91
2017-08-03T01:40:44.023Z,98834.22
2017-08-03T01:43:16.234Z,98852.39
2017-08-03T01:45:49.713Z,98780.94
2017-08-03T01:48:22.284Z,98838.38
2017-08-03T01:50:55.045Z,98835.06
2017-08-03T01:53:27.706Z,98826.40
2017-08-03T01:56:00.285Z,98819.89
2017-08-03T01:58:33.407Z,98828.75
2017-08-03T02:01:08.076Z,98806.99
2017-08-03T02:03:42.982Z,98802.00
2017-08-03T02:06:16.434Z,98818.33
2017-08-03T02:08:49.677Z,98714.47
2017-08-03T02:11:22.578Z,98815.93
2017-08-03T02:13:55.437Z,98806.41
2017-08-03T02:16:27.811Z,98805.30
2017-08-03T02:19:00.952Z,98802.80
2017-08-03T02:21:33.940Z,98798.34
2017-08-03T02:24:20.709Z,98807.80
2017-08-03T02:26:53.667Z,98775.76
2017-08-03T02:29:26.619Z,98796.83
2017-08-03T02:32:02.093Z,98797.75
2017-08-03T02:34:35.907Z,98790.39
2017-08-03T02:37:09.592Z,98791.58
2017-08-03T02:39:43.552Z,98789.22
2017-08-03T02:42:16.286Z,98784.30
2017-08-03T02:44:49.813Z,98769.98
2017-08-03T02:47:22.430Z,98777.95
2017-08-03T02:49:54.974Z,98775.50
2017-08-03T02:52:27.587Z,98776.88
2017-08-03T02:55:00.392Z,98779.47
2017-08-03T02:57:33.422Z,98767.14
2017-08-03T03:00:06.873Z,98761.48
2017-08-03T03:02:39.666Z,98763.89
2017-08-03T03:05:12.480Z,98744.33
2017-08-03T03:07:46.905Z,98748.70
2017-08-03T03:10:20.243Z,98749.16
2017-08-03T03:12:52.522Z,98746.17
2017-08-03T03:15:25.288Z,98737.84
2017-08-03T03:17:57.669Z,98733.41
2017-08-03T03:20:30.669Z,98735.87
2017-08-03T03:23:02.964Z,98738.49
2017-08-03T03:25:35.312Z,98740.53
2017-08-03T03:28:08.198Z,98740.17
2017-08-03T03:30:40.766Z,98735.73
2017-08-03T03:33:14.920Z,98731.50
2017-08-03T03:35:49.600Z,98725.77
2017-08-03T03:38:22.209Z,98721.14
2017-08-03T03:40:55.519Z,98716.81
2017-08-03T03:43:29.155Z,98712.48
2017-08-03T03:46:02.159Z,98703.92
2017-08-03T03:48:34.709Z,98700.77
2017-08-03T03:51:07.647Z,98686.83
2017-08-03T03:53:40.650Z,98687.67
2017-08-03T03:56:14.660Z,98684.30
2017-08-03T03:58:49.206Z,98685.81
2017-08-03T04:01:21.780Z,98675.73
2017-08-03T04:03:54.415Z,98679.05
2017-08-03T04:06:28.126Z,98672.72
2017-08-03T04:09:00.832Z,98671.25
2017-08-03T04:11:33.626Z,98669.73
2017-08-03T04:14:06.050Z,98668.72
2017-08-03T04:16:38.716Z,98670.69
2017-08-03T04:19:10.851Z,98666.09
2017-08-03T04:21:45.374Z,98664.75
2017-08-03T04:24:17.918Z,98561.42
2017-08-03T04:26:50.275Z,98665.77
2017-08-03T04:29:24.464Z,98665.77
2017-08-03T04:31:57.113Z,98663.08
2017-08-03T04:34:29.896Z,98663.73
2017-08-03T04:37:02.251Z,98660.78
2017-08-03T04:39:35.105Z,98656.98
2017-08-03T04:42:07.649Z,98649.47
2017-08-03T04:44:39.962Z,98642.19
2017-08-03T04:47:12.286Z,98642.52
2017-08-03T04:49:47.901Z,98640.05
2017-08-03T04:52:20.394Z,98627.00
2017-08-03T04:54:52.989Z,98621.27
2017-08-03T04:57:27.191Z,98620.67
2017-08-03T05:00:01.530Z,98617.23
2017-08-03T05:02:35.488Z,98636.22
2017-08-03T05:05:08.877Z,98619.82
2017-08-03T05:07:44.276Z,98622.37
2017-08-03T05:10:17.290Z,98628.61
2017-08-03T05:12:53.164Z,98583.14
2017-08-03T05:15:26.017Z,98605.98
2017-08-03T05:17:58.718Z,98622.58
2017-08-03T05:20:31.030Z,98625.46
2017-08-03T05:23:03.946Z,98626.23
2017-08-03T05:25:36.631Z,98626.55
2017-08-03T05:28:10.803Z,98612.41
2017-08-03T05:30:46.673Z,98616.73
2017-08-03T05:33:22.250Z,98618.54
2017-08-03T05:35:55.477Z,98622.05
2017-08-03T05:38:27.799Z,98615.09
2017-08-03T05:41:00.382Z,98613.83
2017-08-03T05:43:35.431Z,98611.59
2017-08-03T05:46:08.873Z,98604.80
2017-08-03T05:48:44.268Z,98592.84
2017-08-03T05:51:19.057Z,98602.66
2017-08-03T05:53:52.234Z,98579.59
2017-08-03T05:56:27.264Z,98598.37
2017-08-03T05:59:00.214Z,98593.48
2017-08-03T06:01:33.337Z,98579.03
2017-08-03T06:04:05.700Z,98588.17
2017-08-03T06:06:38.037Z,98575.63
2017-08-03T06:09:10.926Z,98591.91
2017-08-03T06:11:45.495Z,98616.05
2017-08-03T06:14:19.891Z,98536.58
2017-08-03T06:16:52.875Z,98595.48
2017-08-03T06:19:25.487Z,98603.36
2017-08-03T06:21:59.170Z,98612.54
2017-08-03T06:24:31.829Z,98621.01
2017-08-03T06:27:05.812Z,98634.22
2017-08-03T06:29:38.138Z,98632.19
2017-08-03T06:32:10.874Z,98634.48
2017-08-03T06:34:44.483Z,98631.63
2017-08-03T06:37:16.839Z,98621.01
2017-08-03T06:39:49.512Z,98629.80
2017-08-03T06:42:23.893Z,98716.52
2017-08-03T06:44:58.356Z,98713.89
2017-08-03T06:47:30.803Z,98709.23
2017-08-03T06:50:03.785Z,98736.31
2017-08-03T06:52:36.335Z,98766.66
2017-08-03T06:55:08.524Z,98763.22
2017-08-03T06:57:41.251Z,98753.28
2017-08-03T07:00:14.068Z,98733.00
2017-08-03T07:02:48.422Z,98707.75
2017-08-03T07:05:21.386Z,98759.44
2017-08-03T07:07:54.002Z,98725.55
2017-08-03T07:10:26.932Z,98738.55
2017-08-03T07:12:59.034Z,98694.16
2017-08-03T07:15:31.409Z,98726.67
2017-08-03T07:18:04.005Z,98665.80
2017-08-03T07:20:36.912Z,98651.93
2017-08-03T07:23:09.458Z,98660.33
2017-08-03T07:25:43.295Z,98663.48
2017-08-03T07:28:16.233Z,98673.31
2017-08-03T07:30:50.063Z,98639.94
2017-08-03T07:33:22.367Z,98666.09
2017-08-03T07:36:01.741Z,98680.10
2017-08-03T07:38:40.191Z,98648.55
2017-08-03T07:41:21.008Z,98607.96
2017-08-03T07:43:57.089Z,98623.13
2017-08-03T07:46:44.387Z,98613.36
2017-08-03T07:49:17.525Z,98607.16
2017-08-03T07:51:50.402Z,98616.28
2017-08-03T07:54:23.377Z,98629.48
2017-08-03T07:56:57.014Z,98589.52
2017-08-03T07:59:29.359Z,98598.86
2017-08-03T08:02:01.795Z,98613.35
2017-08-03T08:04:34.880Z,98609.83
2017-08-03T08:07:07.418Z,98621.09
2017-08-03T08:09:43.751Z,98622.77
2017-08-03T08:12:16.138Z,98619.31
2017-08-03T08:14:49.956Z,98591.92
2017-08-03T08:17:22.832Z,98609.52
2017-08-03T08:19:55.735Z,98609.52
2017-08-03T08:22:29.654Z,98603.61
2017-08-03T08:25:06.742Z,98610.86
2017-08-03T08:27:39.252Z,98612.46
2017-08-03T08:30:12.075Z,98618.40
2017-08-03T08:32:47.637Z,98609.62
2017-08-03T08:35:21.081Z,98622.66
2017-08-03T08:37:53.545Z,98616.33
2017-08-03T08:40:25.622Z,98609.12
2017-08-03T08:42:57.792Z,98620.82
2017-08-03T08:45:30.345Z,98628.77
2017-08-03T08:48:02.546Z,98629.00
2017-08-03T08:50:35.536Z,98629.09
2017-08-03T08:53:09.046Z,98611.07
2017-08-03T08:55:44.225Z,98613.20
2017-08-03T08:58:17.576Z,98618.54
2017-08-03T09:00:50.148Z,98610.50
2017-08-03T09:03:22.186Z,98558.50
2017-08-03T09:05:55.125Z,98601.49
2017-08-03T09:08:28.381Z,98610.47
2017-08-03T09:11:00.937Z,98618.31
2017-08-03T09:13:33.072Z,98620.45
2017-08-03T09:16:05.144Z,98623.23
2017-08-03T09:18:37.382Z,98615.55
2017-08-03T09:21:09.928Z,98610.23
2017-08-03T09:23:44.277Z,98615.31
2017-08-03T09:26:16.596Z,98619.03
2017-08-03T09:28:49.506Z,98593.80
2017-08-03T09:31:21.839Z,98627.98
2017-08-03T09:33:54.056Z,98634.77
2017-08-03T09:36:26.179Z,98629.39
2017-08-03T09:38:59.573Z,98637.45
2017-08-03T09:41:31.608Z,98648.61
2017-08-03T09:44:03.641Z,98651.37
2017-08-03T09:46:36.007Z,98658.75
2017-08-03T09:49:08.406Z,98659.14
2017-08-03T09:51:44.079Z,98668.45
2017-08-03T09:54:16.473Z,98675.18
2017-08-03T09:56:49.774Z,98669.41
2017-08-03T09:59:23.238Z,98658.42
2017-08-03T10:01:58.268Z,98640.88
2017-08-03T10:04:30.744Z,98622.04
2017-08-03T10:07:03.358Z,98630.84
2017-08-03T10:09:35.772Z,98571.89
2017-08-03T10:12:07.766Z,98555.98
2017-08-03T10:14:40.398Z,98575.44
2017-08-03T10:17:15.293Z,98600.52
2017-08-03T10:19:49.699Z,98597.05
2017-08-03T10:22:22.257Z,98589.52
2017-08-03T10:24:55.454Z,98579.16
2017-08-03T10:27:28.337Z,98552.11
2017-08-03T10:30:00.562Z,98566.47
2017-08-03T10:32:32.934Z,98572.10
2017-08-03T10:35:05.586Z,98564.94
2017-08-03T10:37:38.151Z,98574.89
2017-08-03T10:40:10.460Z,98576.28
2017-08-03T10:42:44.727Z,98574.79
2017-08-03T10:45:17.277Z,98538.03
2017-08-03T10:47:50.661Z,98500.72
2017-08-03T10:50:23.010Z,98548.95
2017-08-03T10:52:55.722Z,98545.59
2017-08-03T10:55:28.044Z,98542.01
2017-08-03T10:58:00.339Z,98538.92
2017-08-03T11:00:32.501Z,98537.27
2017-08-03T11:03:04.648Z,98537.83
2017-08-03T11:05:39.672Z,98541.95
2017-08-03T11:08:12.267Z,98532.27
2017-08-03T11:10:46.807Z,98533.58
2017-08-03T11:13:18.938Z,98520.77
2017-08-03T11:15:52.960Z,98531.41
2017-08-03T11:18:25.542Z,98539.17
2017-08-03T11:20:59.875Z,98542.91
2017-08-03T11:23:33.288Z,98535.89
2017-08-03T11:26:06.636Z,98531.47
2017-08-03T11:28:39.885Z,98521.94
2017-08-03T11:31:12.773Z,98537.45
2017-08-03T11:33:46.876Z,98534.44
2017-08-03T11:36:31.005Z,98551.28
2017-08-03T11:39:03.008Z,98557.91
2017-08-03T11:41:35.315Z,98553.31
2017-08-03T11:44:08.321Z,98544.52
2017-08-03T11:46:40.642Z,98528.43
2017-08-03T11:49:14.577Z,98530.70
2017-08-03T11:51:50.153Z,98509.34
2017-08-03T11:54:22.247Z,98479.95
2017-08-03T11:56:54.564Z,98461.53
2017-08-03T11:59:26.683Z,98455.98
2017-08-03T12:01:59.546Z,98469.72
2017-08-03T12:04:32.021Z,98464.92
2017-08-03T12:07:04.323Z,98453.53
2017-08-03T12:09:37.083Z,98451.80
2017-08-03T12:12:09.417Z,98428.23
2017-08-03T12:14:43.296Z,98447.13
2017-08-03T12:17:16.535Z,98426.66
2017-08-03T12:19:51.068Z,98432.05
2017-08-03T12:22:23.131Z,98462.94
2017-08-03T12:24:55.677Z,98466.16
2017-08-03T12:27:28.347Z,98460.32
2017-08-03T12:30:00.538Z,98457.38
2017-08-03T12:32:32.957Z,98453.17
2017-08-03T12:35:05.090Z,98465.45
2017-08-03T12:37:38.151Z,98463.77
2017-08-03T12:40:10.364Z,98465.27
2017-08-03T12:42:44.788Z,98466.75
2017-08-03T12:45:18.588Z,98467.05
2017-08-03T12:47:50.590Z,98448.80
2017-08-03T12:50:22.741Z,98461.23
2017-08-03T12:52:55.083Z,98462.70
2017-08-03T12:55:27.377Z,98437.99
2017-08-03T12:57:59.829Z,98457.08
2017-08-03T13:00:32.096Z,98442.26
2017-08-03T13:03:04.318Z,98445.59
2017-08-03T13:05:37.693Z,98451.42
2017-08-03T13:08:10.290Z,98453.10
2017-08-03T13:10:45.561Z,98445.77
2017-08-03T13:13:17.930Z,98440.30
2017-08-03T13:15:49.991Z,98436.38
2017-08-03T13:18:23.178Z,98439.37
2017-08-03T13:20:55.905Z,98435.38
2017-08-03T13:23:28.640Z,98439.93
2017-08-03T13:26:00.766Z,98427.69
2017-08-03T13:28:38.230Z,98428.98
2017-08-03T13:31:10.907Z,98408.52
2017-08-03T13:33:45.350Z,98427.15
2017-08-03T13:36:17.635Z,98429.50
2017-08-03T13:38:50.324Z,98397.38
2017-08-03T13:41:22.236Z,98417.42
2017-08-03T13:43:54.657Z,98414.06
2017-08-03T13:46:26.745Z,98409.06
2017-08-03T13:49:04.064Z,98403.50
2017-08-03T13:51:37.362Z,98398.52
2017-08-03T13:54:09.774Z,98397.34
2017-08-03T13:56:44.163Z,98403.52
2017-08-03T13:59:16.415Z,98354.84
2017-08-03T14:01:48.550Z,98394.83
2017-08-03T14:04:20.940Z,98389.88
2017-08-03T14:06:53.784Z,98386.23
2017-08-03T14:09:26.251Z,98375.63
2017-08-03T14:11:58.421Z,98369.95
2017-08-03T14:14:30.445Z,98383.23
2017-08-03T14:17:02.639Z,98383.08
2017-08-03T14:19:34.715Z,98376.91
2017-08-03T14:22:07.189Z,98380.91
2017-08-03T14:24:44.376Z,98374.54
2017-08-03T14:27:48.806Z,98367.02
2017-08-03T14:30:21.049Z,98357.30
2017-08-03T14:32:53.613Z,98377.56
2017-08-03T14:35:25.563Z,98380.28
2017-08-03T14:37:58.202Z,98372.56
2017-08-03T14:40:30.158Z,98385.09
2017-08-03T14:43:02.680Z,98386.84
2017-08-03T14:45:34.970Z,98388.19
2017-08-03T14:48:08.444Z,98386.44
2017-08-03T14:50:43.010Z,98391.72
2017-08-03T14:53:16.161Z,98398.52
2017-08-03T14:55:50.010Z,98398.13
2017-08-03T14:58:23.465Z,98398.86
2017-08-03T15:00:55.854Z,98400.14
2017-08-03T15:03:27.906Z,98403.45
2017-08-03T15:06:00.258Z,98400.09
2017-08-03T15:08:32.674Z,98416.70
2017-08-03T15:11:06.130Z,98400.42
2017-08-03T15:13:38.311Z,98406.31
2017-08-03T15:16:10.581Z,98412.99
2017-08-03T15:18:43.076Z,98407.50
2017-08-03T15:21:15.717Z,98395.42
2017-08-03T15:23:49.155Z,98349.27
2017-08-03T15:26:21.316Z,98419.45
2017-08-03T15:28:53.253Z,98415.34
2017-08-03T15:31:52.454Z,98407.90
2017-08-03T15:34:24.593Z,98402.55
2017-08-03T15:36:56.849Z,98400.64
2017-08-03T15:39:29.361Z,98390.44
2017-08-03T15:42:01.739Z,98389.25
2017-08-03T15:44:34.103Z,98395.59
2017-08-03T15:47:06.997Z,98392.35
2017-08-03T15:49:39.857Z,98391.33
2017-08-03T15:52:12.448Z,98384.11
2017-08-03T15:54:48.388Z,98390.48
2017-08-03T15:57:21.204Z,98393.01
2017-08-03T15:59:54.393Z,98395.55
2017-08-03T16:02:27.049Z,98399.70
2017-08-03T16:05:00.576Z,98396.09
2017-08-03T16:07:32.892Z,98396.38
2017-08-03T16:10:05.050Z,98398.45
2017-08-03T16:12:37.581Z,98398.84
2017-08-03T16:15:10.266Z,98398.97
2017-08-03T16:17:43.978Z,98402.39
2017-08-03T16:20:16.626Z,98410.58
2017-08-03T16:22:49.374Z,98404.13
2017-08-03T16:25:22.014Z,98408.30
2017-08-03T16:27:54.678Z,98409.50
2017-08-03T16:30:28.307Z,98403.84
2017-08-03T16:33:02.698Z,98412.80
2017-08-03T16:35:34.962Z,98412.75
2017-08-03T16:38:07.221Z,98396.39
2017-08-03T16:40:39.954Z,98407.44
2017-08-03T16:43:12.454Z,98403.01
2017-08-03T16:45:47.460Z,98392.08
2017-08-03T16:48:19.812Z,98391.79
2017-08-03T16:50:52.702Z,98380.78
2017-08-03T16:53:24.898Z,98397.47
2017-08-03T16:55:57.601Z,98390.08
2017-08-03T17:00:37.182Z,98397.82
2017-08-03T17:03:11.186Z,98398.48
2017-08-03T17:05:48.382Z,98387.70
2017-08-03T17:08:21.014Z,98389.48
2017-08-03T17:10:54.374Z,98401.47
2017-08-03T17:13:26.727Z,98400.69
2017-08-03T17:15:59.698Z,98391.45
2017-08-03T17:18:32.443Z,98383.69
2017-08-03T17:21:04.993Z,98396.98
2017-08-03T17:23:37.467Z,98410.15
2017-08-03T17:26:17.321Z,98413.50
2017-08-03T17:28:52.663Z,98413.22
2017-08-03T17:31:24.894Z,98424.81
2017-08-03T17:34:06.530Z,98428.14
2017-08-03T17:36:39.181Z,98433.13
2017-08-03T17:39:11.693Z,98432.67
2017-08-03T17:41:46.324Z,98431.59
2017-08-03T17:44:18.946Z,98439.22
2017-08-03T17:46:50.960Z,98420.98
2017-08-03T17:49:22.965Z,98415.25
2017-08-03T17:51:55.387Z,98428.05
2017-08-03T17:54:27.504Z,98438.44
2017-08-03T17:56:59.791Z,98449.91
2017-08-03T17:59:32.697Z,98441.34
2017-08-03T18:02:05.536Z,98448.73
2017-08-03T18:04:38.526Z,98430.36
2017-08-03T18:07:10.670Z,98448.78
2017-08-03T18:09:46.194Z,98442.05
2017-08-03T18:12:18.617Z,98450.78
2017-08-03T18:14:50.967Z,98432.03
2017-08-03T18:17:23.161Z,98445.15
2017-08-03T18:19:56.195Z,98398.64
2017-08-03T18:22:28.439Z,98437.94
2017-08-03T18:25:01.516Z,98432.52
2017-08-03T18:27:40.502Z,98438.32
2017-08-03T18:30:13.515Z,98439.66
2017-08-03T18:32:46.013Z,98433.42
2017-08-03T18:35:39.705Z,98451.19
2017-08-03T18:38:13.974Z,98450.94
2017-08-03T18:40:49.697Z,98455.45
2017-08-03T18:43:22.332Z,98451.80
2017-08-03T18:45:54.813Z,98461.19
2017-08-03T18:48:27.013Z,98454.86
2017-08-03T18:50:59.429Z,98427.23
2017-08-03T18:53:32.110Z,98458.78
2017-08-03T18:56:04.361Z,98465.81
2017-08-03T18:58:36.706Z,98470.91
2017-08-03T19:01:18.250Z,98481.11
2017-08-03T19:03:51.622Z,98482.94
2017-08-03T19:06:24.087Z,98479.91
2017-08-03T19:08:56.507Z,98478.09
2017-08-03T19:11:30.061Z,98480.12
2017-08-03T19:14:02.985Z,98490.58
2017-08-03T19:16:36.046Z,98503.25
2017-08-03T19:19:08.293Z,98495.30
2017-08-03T19:21:40.521Z,98494.91
2017-08-03T19:24:13.323Z,98497.87
2017-08-03T19:26:48.476Z,98511.45
2017-08-03T19:29:21.205Z,98521.08
2017-08-03T19:31:53.839Z,98529.39
2017-08-03T19:34:27.584Z,98529.80
2017-08-03T19:37:00.223Z,98529.28
2017-08-03T19:39:32.424Z,98539.13
2017-08-03T19:42:05.312Z,98532.14
2017-08-03T19:44:50.873Z,98537.23
2017-08-03T19:47:25.461Z,98537.23
2017-08-03T19:50:00.419Z,98543.04
2017-08-03T19:52:42.663Z,98578.58
2017-08-03T19:55:22.104Z,98553.84
2017-08-03T19:58:02.264Z,98550.59
2017-08-03T20:00:49.283Z,98542.67
2017-08-03T20:03:22.571Z,98551.92
2017-08-03T20:06:01.147Z,98544.50
2017-08-03T20:08:42.879Z,98542.75
2017-08-03T20:11:21.263Z,98554.10
2017-08-03T20:13:53.682Z,98549.24
2017-08-03T20:16:26.491Z,98574.77
2017-08-03T20:18:58.911Z,98551.19
2017-08-03T20:21:31.580Z,98556.56
2017-08-03T20:24:04.510Z,98560.44
2017-08-03T20:26:36.521Z,98555.36
2017-08-03T20:29:10.396Z,98541.53
2017-08-03T20:31:44.751Z,98552.52
2017-08-03T20:34:18.780Z,98554.70
2017-08-03T20:36:50.752Z,98535.83
2017-08-03T20:39:23.254Z,98527.03
2017-08-03T20:41:55.465Z,98549.59
2017-08-03T20:44:27.601Z,98556.11
2017-08-03T20:47:01.827Z,98556.88
2017-08-03T20:49:33.922Z,98559.23
2017-08-03T20:52:06.410Z,98566.58
2017-08-03T20:54:38.857Z,98551.52
2017-08-03T20:57:11.016Z,98555.91
2017-08-03T20:59:55.241Z,98555.76
2017-08-03T21:02:27.317Z,98525.25
2017-08-03T21:05:00.723Z,98552.81
2017-08-03T21:10:17.169Z,98563.55
2017-08-03T21:12:50.089Z,98523.05
2017-08-03T21:15:22.673Z,98542.41
2017-08-03T21:17:54.803Z,98537.95
2017-08-03T21:20:27.834Z,98532.25
2017-08-03T21:23:00.085Z,98562.91
2017-08-03T21:25:32.909Z,98558.06
2017-08-03T21:28:05.162Z,98568.97
2017-08-03T21:30:37.860Z,98585.61
2017-08-03T21:33:10.091Z,98578.40
2017-08-03T21:35:44.146Z,98564.47
2017-08-03T21:38:16.830Z,98564.66
2017-08-03T21:40:49.684Z,98537.59
2017-08-03T21:43:21.842Z,98570.49
2017-08-03T21:45:54.794Z,98562.80
2017-08-03T21:48:28.196Z,98558.14
2017-08-03T21:51:00.604Z,98579.65
2017-08-03T21:53:32.787Z,98583.04
2017-08-03T21:56:05.449Z,98581.19
2017-08-03T21:58:37.809Z,98582.36
2017-08-03T22:01:18.058Z,98582.05
2017-08-03T22:03:50.737Z,98567.02
2017-08-03T22:06:23.270Z,98589.51
2017-08-03T22:08:55.467Z,98581.53
2017-08-03T22:11:27.872Z,98593.19
2017-08-03T22:14:00.799Z,98591.27
2017-08-03T22:16:33.494Z,98583.50
2017-08-03T22:19:06.114Z,98566.02
2017-08-03T22:21:38.709Z,98576.67
2017-08-03T22:24:10.729Z,98576.83
2017-08-03T22:26:45.468Z,98575.66
2017-08-03T22:29:18.682Z,98580.21
2017-08-03T22:31:50.910Z,98569.75
2017-08-03T22:34:23.097Z,98575.21
2017-08-03T22:36:57.815Z,98564.95
2017-08-03T22:39:29.735Z,98563.63
2017-08-03T22:42:02.980Z,98549.15
2017-08-03T22:44:35.321Z,98547.57
2017-08-03T22:47:08.312Z,98541.84
2017-08-03T22:49:40.649Z,98535.25
2017-08-03T22:52:15.348Z,98552.48
2017-08-03T22:54:49.641Z,98561.23
2017-08-03T22:57:22.323Z,98553.79
2017-08-03T22:59:54.464Z,98569.67
2017-08-03T23:02:26.841Z,98564.94
2017-08-03T23:04:58.930Z,98566.76
2017-08-03T23:07:31.435Z,98546.19
2017-08-03T23:10:04.689Z,98514.83
2017-08-03T23:12:38.038Z,98562.60
2017-08-03T23:15:10.573Z,98554.76
2017-08-03T23:17:48.239Z,98557.12
2017-08-03T23:20:20.426Z,98558.62
2017-08-03T23:22:54.022Z,98557.99
2017-08-03T23:25:26.212Z,98550.28
2017-08-03T23:27:58.863Z,98557.89
2017-08-03T23:30:31.448Z,98558.31
2017-08-03T23:33:06.293Z,98538.89
2017-08-03T23:35:38.218Z,98518.53
2017-08-03T23:38:11.160Z,98542.36
2017-08-03T23:40:45.084Z,98538.64
2017-08-03T23:43:17.091Z,98534.41
2017-08-03T23:45:51.073Z,98514.75
2017-08-03T23:48:23.367Z,98552.48
2017-08-03T23:50:55.633Z,98564.93
2017-08-03T23:53:27.595Z,98559.25
2017-08-03T23:56:00.506Z,98556.57
2017-08-03T23:58:32.835Z,98576.47
